sensor_id;sensor_type;location;lat;lon;timestamp;pressure;altitude;pressure_sealevel;temperature;humidity
30949;BME280;17637;51.984;21.208;2023-02-12T00:00:51;101425.00;;;1.11;68.41
30949;BME280;17637;51.984;21.208;2023-02-12T00:03:23;101440.25;;;1.21;68.42
30949;BME280;17637;51.984;21.208;2023-02-12T00:05:59;101455.59;;;1.19;68.56
30949;BME280;17637;51.984;21.208;2023-02-12T00:08:31;101468.25;;;1.30;68.28
30949;BME280;17637;51.984;21.208;2023-02-12T00:11:17;101486.22;;;1.27;68.44
30949;BME280;17637;51.984;21.208;2023-02-12T00:13:49;101495.38;;;1.43;68.56
30949;BME280;17637;51.984;21.208;2023-02-12T00:16:27;101479.53;;;1.18;68.59
30949;BME280;17637;51.984;21.208;2023-02-12T00:18:59;101498.88;;;1.38;68.19
30949;BME280;17637;51.984;21.208;2023-02-12T00:21:34;101487.28;;;1.13;68.50
30949;BME280;17637;51.984;21.208;2023-02-12T00:24:06;101516.09;;;1.28;68.72
30949;BME280;17637;51.984;21.208;2023-02-12T00:26:39;101486.75;;;0.88;69.17
30949;BME280;17637;51.984;21.208;2023-02-12T00:29:11;101475.81;;;0.77;69.06
30949;BME280;17637;51.984;21.208;2023-02-12T00:31:43;101517.28;;;1.04;69.45
30949;BME280;17637;51.984;21.208;2023-02-12T00:34:15;101482.63;;;0.78;69.57
30949;BME280;17637;51.984;21.208;2023-02-12T00:36:47;101539.53;;;1.00;68.31
30949;BME280;17637;51.984;21.208;2023-02-12T00:39:19;101557.56;;;0.89;67.39
30949;BME280;17637;51.984;21.208;2023-02-12T00:41:51;101566.28;;;0.76;66.92
30949;BME280;17637;51.984;21.208;2023-02-12T00:44:23;101572.34;;;0.67;66.81
30949;BME280;17637;51.984;21.208;2023-02-12T00:46:55;101534.31;;;0.36;66.59
30949;BME280;17637;51.984;21.208;2023-02-12T00:49:29;101544.63;;;0.25;66.12
30949;BME280;17637;51.984;21.208;2023-02-12T00:52:04;101522.38;;;0.35;66.40
30949;BME280;17637;51.984;21.208;2023-02-12T00:54:37;101575.78;;;0.61;66.81
30949;BME280;17637;51.984;21.208;2023-02-12T00:57:09;101547.78;;;0.51;66.90
30949;BME280;17637;51.984;21.208;2023-02-12T00:59:41;101580.09;;;0.59;67.20
30949;BME280;17637;51.984;21.208;2023-02-12T01:02:13;101531.75;;;0.33;67.10
30949;BME280;17637;51.984;21.208;2023-02-12T01:04:45;101582.56;;;0.67;67.07
30949;BME280;17637;51.984;21.208;2023-02-12T01:07:17;101572.44;;;0.56;66.97
30949;BME280;17637;51.984;21.208;2023-02-12T01:09:49;101568.19;;;0.57;66.83
30949;BME280;17637;51.984;21.208;2023-02-12T01:12:21;101544.69;;;0.21;67.22
30949;BME280;17637;51.984;21.208;2023-02-12T01:14:53;101567.56;;;0.36;67.56
30949;BME280;17637;51.984;21.208;2023-02-12T01:17:25;101583.63;;;0.49;67.58
30949;BME280;17637;51.984;21.208;2023-02-12T01:19:57;101592.25;;;0.39;67.05
30949;BME280;17637;51.984;21.208;2023-02-12T01:22:30;101618.59;;;0.47;67.44
30949;BME280;17637;51.984;21.208;2023-02-12T01:25:06;101615.25;;;0.40;67.36
30949;BME280;17637;51.984;21.208;2023-02-12T01:27:38;101591.44;;;0.34;67.34
30949;BME280;17637;51.984;21.208;2023-02-12T01:30:12;101598.25;;;0.33;67.18
30949;BME280;17637;51.984;21.208;2023-02-12T01:32:44;101600.13;;;0.12;66.75
30949;BME280;17637;51.984;21.208;2023-02-12T01:35:16;101627.22;;;0.37;66.95
30949;BME280;17637;51.984;21.208;2023-02-12T01:37:48;101626.41;;;0.31;66.60
30949;BME280;17637;51.984;21.208;2023-02-12T01:40:20;101564.56;;;-0.12;66.72
30949;BME280;17637;51.984;21.208;2023-02-12T01:42:52;101593.28;;;0.18;66.49
30949;BME280;17637;51.984;21.208;2023-02-12T01:47:59;101625.47;;;0.40;66.70
30949;BME280;17637;51.984;21.208;2023-02-12T01:50:31;101617.19;;;0.12;66.55
30949;BME280;17637;51.984;21.208;2023-02-12T01:53:03;101645.97;;;0.36;66.63
30949;BME280;17637;51.984;21.208;2023-02-12T01:55:36;101634.13;;;0.25;66.87
30949;BME280;17637;51.984;21.208;2023-02-12T01:58:08;101655.47;;;0.20;66.93
30949;BME280;17637;51.984;21.208;2023-02-12T02:00:40;101657.94;;;0.30;66.82
30949;BME280;17637;51.984;21.208;2023-02-12T02:03:13;101650.31;;;0.26;66.38
30949;BME280;17637;51.984;21.208;2023-02-12T02:06:10;101658.06;;;0.15;66.09
30949;BME280;17637;51.984;21.208;2023-02-12T02:08:43;101599.56;;;-0.24;65.30
30949;BME280;17637;51.984;21.208;2023-02-12T02:11:15;101615.75;;;-0.22;65.36
30949;BME280;17637;51.984;21.208;2023-02-12T02:14:05;101643.56;;;0.19;64.95
30949;BME280;17637;51.984;21.208;2023-02-12T02:17:00;101685.19;;;0.36;64.69
30949;BME280;17637;51.984;21.208;2023-02-12T02:28:32;101724.34;;;0.40;65.80
30949;BME280;17637;51.984;21.208;2023-02-12T02:31:35;101679.38;;;0.12;67.00
30949;BME280;17637;51.984;21.208;2023-02-12T02:34:19;101706.53;;;0.34;67.33
30949;BME280;17637;51.984;21.208;2023-02-12T02:43:03;101716.72;;;0.37;67.30
30949;BME280;17637;51.984;21.208;2023-02-12T02:45:42;101720.97;;;0.38;66.54
30949;BME280;17637;51.984;21.208;2023-02-12T02:48:31;101706.59;;;0.23;66.48
30949;BME280;17637;51.984;21.208;2023-02-12T02:51:12;101750.91;;;0.22;66.80
30949;BME280;17637;51.984;21.208;2023-02-12T02:53:53;101733.00;;;0.26;66.46
30949;BME280;17637;51.984;21.208;2023-02-12T02:56:29;101748.31;;;0.31;66.42
30949;BME280;17637;51.984;21.208;2023-02-12T02:59:08;101744.94;;;0.24;66.86
30949;BME280;17637;51.984;21.208;2023-02-12T03:01:54;101764.47;;;0.33;66.41
30949;BME280;17637;51.984;21.208;2023-02-12T03:04:34;101785.75;;;0.40;66.83
30949;BME280;17637;51.984;21.208;2023-02-12T03:07:24;101766.25;;;0.25;66.82
30949;BME280;17637;51.984;21.208;2023-02-12T03:10:01;101759.44;;;0.24;66.43
30949;BME280;17637;51.984;21.208;2023-02-12T03:12:59;101779.81;;;0.35;66.39
30949;BME280;17637;51.984;21.208;2023-02-12T03:15:38;101806.22;;;0.41;66.27
30949;BME280;17637;51.984;21.208;2023-02-12T03:18:24;101801.13;;;0.32;66.29
30949;BME280;17637;51.984;21.208;2023-02-12T03:21:01;101835.28;;;0.26;66.15
30949;BME280;17637;51.984;21.208;2023-02-12T03:23:52;101843.78;;;0.27;66.61
30949;BME280;17637;51.984;21.208;2023-02-12T03:26:44;101837.84;;;0.25;66.87
30949;BME280;17637;51.984;21.208;2023-02-12T03:29:17;101820.84;;;0.14;66.57
30949;BME280;17637;51.984;21.208;2023-02-12T03:35:22;101870.22;;;0.29;66.36
30949;BME280;17637;51.984;21.208;2023-02-12T03:40:42;101882.16;;;0.25;66.71
30949;BME280;17637;51.984;21.208;2023-02-12T03:43:46;101879.63;;;0.21;66.07
30949;BME280;17637;51.984;21.208;2023-02-12T03:46:29;101884.72;;;0.25;65.69
30949;BME280;17637;51.984;21.208;2023-02-12T03:49:32;101876.19;;;0.26;65.52
30949;BME280;17637;51.984;21.208;2023-02-12T03:52:05;101884.72;;;0.25;65.13
30949;BME280;17637;51.984;21.208;2023-02-12T03:54:37;101885.59;;;0.21;64.95
30949;BME280;17637;51.984;21.208;2023-02-12T03:57:14;101854.97;;;0.06;65.21
30949;BME280;17637;51.984;21.208;2023-02-12T03:59:48;101884.72;;;0.30;65.64
30949;BME280;17637;51.984;21.208;2023-02-12T04:02:21;101865.22;;;0.01;65.42
30949;BME280;17637;51.984;21.208;2023-02-12T04:04:53;101887.34;;;0.14;65.33
30949;BME280;17637;51.984;21.208;2023-02-12T04:07:24;101873.69;;;0.12;65.28
30949;BME280;17637;51.984;21.208;2023-02-12T04:09:57;101902.59;;;0.27;65.57
30949;BME280;17637;51.984;21.208;2023-02-12T04:12:38;101918.78;;;0.34;65.29
30949;BME280;17637;51.984;21.208;2023-02-12T04:18:26;101901.78;;;0.23;65.08
30949;BME280;17637;51.984;21.208;2023-02-12T04:24:17;101917.06;;;0.39;64.07
30949;BME280;17637;51.984;21.208;2023-02-12T04:26:53;101927.31;;;0.39;64.36
30949;BME280;17637;51.984;21.208;2023-02-12T04:29:43;101930.69;;;0.45;63.75
30949;BME280;17637;51.984;21.208;2023-02-12T04:32:36;101933.22;;;0.50;64.59
30949;BME280;17637;51.984;21.208;2023-02-12T04:37:45;101906.03;;;0.29;64.22
30949;BME280;17637;51.984;21.208;2023-02-12T04:40:21;101883.97;;;0.00;63.17
30949;BME280;17637;51.984;21.208;2023-02-12T04:42:53;101878.84;;;0.03;63.68
30949;BME280;17637;51.984;21.208;2023-02-12T04:45:28;101937.53;;;0.36;63.23
30949;BME280;17637;51.984;21.208;2023-02-12T04:48:00;101941.81;;;0.29;63.11
30949;BME280;17637;51.984;21.208;2023-02-12T04:50:41;101927.38;;;0.17;63.17
30949;BME280;17637;51.984;21.208;2023-02-12T04:53:13;101909.53;;;-0.03;62.98
30949;BME280;17637;51.984;21.208;2023-02-12T04:55:45;101948.69;;;0.13;62.66
30949;BME280;17637;51.984;21.208;2023-02-12T04:58:18;101933.38;;;0.01;62.78
30949;BME280;17637;51.984;21.208;2023-02-12T05:00:50;101942.72;;;0.17;63.00
30949;BME280;17637;51.984;21.208;2023-02-12T05:03:22;101952.97;;;-0.08;62.45
30949;BME280;17637;51.984;21.208;2023-02-12T05:05:54;101947.00;;;0.01;62.49
30949;BME280;17637;51.984;21.208;2023-02-12T05:08:27;101947.00;;;0.01;61.78
30949;BME280;17637;51.984;21.208;2023-02-12T05:11:04;101968.34;;;-0.05;62.27
30949;BME280;17637;51.984;21.208;2023-02-12T05:13:37;101973.41;;;0.06;62.83
30949;BME280;17637;51.984;21.208;2023-02-12T05:16:09;101963.22;;;-0.06;62.72
30949;BME280;17637;51.984;21.208;2023-02-12T05:18:41;101982.81;;;-0.04;62.20
30949;BME280;17637;51.984;21.208;2023-02-12T05:21:13;101986.22;;;-0.11;62.67
30949;BME280;17637;51.984;21.208;2023-02-12T05:23:45;102013.50;;;-0.04;62.44
30949;BME280;17637;51.984;21.208;2023-02-12T05:26:20;102012.63;;;0.04;63.18
30949;BME280;17637;51.984;21.208;2023-02-12T05:28:52;102026.28;;;0.03;62.76
30949;BME280;17637;51.984;21.208;2023-02-12T05:31:24;101993.06;;;-0.25;63.24
30949;BME280;17637;51.984;21.208;2023-02-12T05:33:57;101980.28;;;-0.28;62.72
30949;BME280;17637;51.984;21.208;2023-02-12T05:36:29;102027.13;;;-0.05;62.89
30949;BME280;17637;51.984;21.208;2023-02-12T05:39:01;102030.53;;;-0.07;63.04
30949;BME280;17637;51.984;21.208;2023-02-12T05:41:33;101991.34;;;-0.50;63.24
30949;BME280;17637;51.984;21.208;2023-02-12T05:44:06;102018.63;;;-0.35;62.94
30949;BME280;17637;51.984;21.208;2023-02-12T05:46:38;102014.38;;;-0.29;62.63
30949;BME280;17637;51.984;21.208;2023-02-12T05:49:10;102054.41;;;-0.11;62.85
30949;BME280;17637;51.984;21.208;2023-02-12T05:51:42;102039.06;;;-0.35;62.82
30949;BME280;17637;51.984;21.208;2023-02-12T05:54:14;102068.00;;;-0.11;63.55
30949;BME280;17637;51.984;21.208;2023-02-12T05:56:46;102067.19;;;0.03;63.07
30949;BME280;17637;51.984;21.208;2023-02-12T05:59:21;102068.88;;;-0.13;62.62
30949;BME280;17637;51.984;21.208;2023-02-12T06:01:53;102070.56;;;-0.08;62.20
30949;BME280;17637;51.984;21.208;2023-02-12T06:04:27;102045.88;;;-0.29;62.23
30949;BME280;17637;51.984;21.208;2023-02-12T06:06:59;102085.03;;;0.01;62.29
30949;BME280;17637;51.984;21.208;2023-02-12T06:09:32;102047.56;;;-0.42;62.06
30949;BME280;17637;51.984;21.208;2023-02-12T06:12:05;102073.13;;;-0.03;61.85
30949;BME280;17637;51.984;21.208;2023-02-12T06:14:39;102076.53;;;-0.13;62.22
30949;BME280;17637;51.984;21.208;2023-02-12T06:17:11;102055.22;;;-0.31;62.83
30949;BME280;17637;51.984;21.208;2023-02-12T06:19:43;102083.34;;;-0.25;62.52
30949;BME280;17637;51.984;21.208;2023-02-12T06:22:15;102067.16;;;-0.31;62.26
30949;BME280;17637;51.984;21.208;2023-02-12T06:24:47;102116.59;;;0.05;62.46
30949;BME280;17637;51.984;21.208;2023-02-12T06:27:19;102118.31;;;0.12;62.80
30949;BME280;17637;51.984;21.208;2023-02-12T06:29:51;102074.00;;;-0.24;62.82
30949;BME280;17637;51.984;21.208;2023-02-12T06:32:23;102125.09;;;-0.03;62.58
30949;BME280;17637;51.984;21.208;2023-02-12T06:34:55;102096.13;;;-0.15;62.85
30949;BME280;17637;51.984;21.208;2023-02-12T06:37:28;102134.47;;;0.12;62.52
30949;BME280;17637;51.984;21.208;2023-02-12T06:40:00;102116.56;;;-0.02;61.66
30949;BME280;17637;51.984;21.208;2023-02-12T06:42:32;102084.22;;;-0.15;61.38
30949;BME280;17637;51.984;21.208;2023-02-12T06:45:04;102104.66;;;-0.09;62.10
30949;BME280;17637;51.984;21.208;2023-02-12T06:47:36;102114.03;;;-0.05;61.98
30949;BME280;17637;51.984;21.208;2023-02-12T06:50:08;102146.41;;;0.32;61.46
30949;BME280;17637;51.984;21.208;2023-02-12T06:52:40;102136.19;;;0.15;61.54
30949;BME280;17637;51.984;21.208;2023-02-12T06:55:12;102131.06;;;-0.01;61.01
30949;BME280;17637;51.984;21.208;2023-02-12T06:57:44;102148.13;;;0.18;61.25
30949;BME280;17637;51.984;21.208;2023-02-12T07:00:16;102144.69;;;0.22;60.57
30949;BME280;17637;51.984;21.208;2023-02-12T07:02:56;102146.41;;;0.37;60.20
30949;BME280;17637;51.984;21.208;2023-02-12T07:05:28;102155.78;;;0.38;60.07
30949;BME280;17637;51.984;21.208;2023-02-12T07:08:00;102142.16;;;0.26;60.13
30949;BME280;17637;51.984;21.208;2023-02-12T07:10:32;102123.41;;;0.18;59.94
30949;BME280;17637;51.984;21.208;2023-02-12T07:13:04;102146.44;;;0.47;59.78
30949;BME280;17637;51.984;21.208;2023-02-12T07:15:38;102148.13;;;0.50;59.79
30949;BME280;17637;51.984;21.208;2023-02-12T07:18:11;102150.66;;;0.39;60.86
30949;BME280;17637;51.984;21.208;2023-02-12T07:20:43;102107.22;;;0.21;60.31
30949;BME280;17637;51.984;21.208;2023-02-12T07:23:15;102159.19;;;0.66;60.10
30949;BME280;17637;51.984;21.208;2023-02-12T07:25:57;102152.38;;;0.49;59.74
30949;BME280;17637;51.984;21.208;2023-02-12T07:28:30;102128.50;;;0.30;58.47
30949;BME280;17637;51.984;21.208;2023-02-12T07:31:14;102167.72;;;0.63;59.23
30949;BME280;17637;51.984;21.208;2023-02-12T07:33:46;102166.88;;;0.63;58.90
30949;BME280;17637;51.984;21.208;2023-02-12T07:36:19;102167.72;;;0.63;59.83
30949;BME280;17637;51.984;21.208;2023-02-12T07:38:53;102164.31;;;0.49;58.94
30949;BME280;17637;51.984;21.208;2023-02-12T07:41:27;102183.91;;;0.56;58.18
30949;BME280;17637;51.984;21.208;2023-02-12T07:44:09;102181.34;;;0.55;58.26
30949;BME280;17637;51.984;21.208;2023-02-12T07:46:44;102180.50;;;0.63;58.45
30949;BME280;17637;51.984;21.208;2023-02-12T07:49:20;102182.19;;;0.61;58.41
30949;BME280;17637;51.984;21.208;2023-02-12T07:51:53;102146.44;;;0.47;57.54
30949;BME280;17637;51.984;21.208;2023-02-12T07:54:27;102194.16;;;0.67;58.80
30949;BME280;17637;51.984;21.208;2023-02-12T07:56:59;102167.69;;;0.71;58.57
30949;BME280;17637;51.984;21.208;2023-02-12T07:59:31;102171.09;;;0.79;57.48
30949;BME280;17637;51.984;21.208;2023-02-12T08:02:03;102127.66;;;0.33;57.38
30949;BME280;17637;51.984;21.208;2023-02-12T08:04:35;102166.84;;;0.75;57.46
30949;BME280;17637;51.984;21.208;2023-02-12T08:07:07;102171.06;;;0.87;59.04
30949;BME280;17637;51.984;21.208;2023-02-12T08:09:39;102193.22;;;1.04;59.13
30949;BME280;17637;51.984;21.208;2023-02-12T08:12:11;102160.00;;;0.73;57.39
30949;BME280;17637;51.984;21.208;2023-02-12T08:14:43;102200.94;;;0.94;57.91
30949;BME280;17637;51.984;21.208;2023-02-12T08:17:15;102159.97;;;0.94;58.15
30949;BME280;17637;51.984;21.208;2023-02-12T08:19:47;102191.50;;;1.18;58.69
30949;BME280;17637;51.984;21.208;2023-02-12T08:22:19;102194.09;;;1.04;57.99
30949;BME280;17637;51.984;21.208;2023-02-12T08:24:51;102170.22;;;0.91;57.45
30949;BME280;17637;51.984;21.208;2023-02-12T08:27:23;102133.59;;;0.64;57.64
30949;BME280;17637;51.984;21.208;2023-02-12T08:29:55;102178.78;;;0.69;57.68
30949;BME280;17637;51.984;21.208;2023-02-12T08:32:27;102175.34;;;0.85;58.04
30949;BME280;17637;51.984;21.208;2023-02-12T08:35:00;102206.91;;;1.00;57.37
30949;BME280;17637;51.984;21.208;2023-02-12T08:37:32;102166.81;;;0.77;57.31
30949;BME280;17637;51.984;21.208;2023-02-12T08:40:04;102212.84;;;1.17;57.56
30949;BME280;17637;51.984;21.208;2023-02-12T08:42:36;102199.16;;;1.17;56.80
30949;BME280;17637;51.984;21.208;2023-02-12T08:45:08;102222.94;;;1.56;57.56
30949;BME280;17637;51.984;21.208;2023-02-12T08:47:40;102210.19;;;1.45;58.10
30949;BME280;17637;51.984;21.208;2023-02-12T08:50:12;102214.50;;;1.34;57.49
30949;BME280;17637;51.984;21.208;2023-02-12T08:52:44;102223.00;;;1.40;56.63
30949;BME280;17637;51.984;21.208;2023-02-12T08:55:17;102214.59;;;0.89;56.95
30949;BME280;17637;51.984;21.208;2023-02-12T08:57:49;102203.44;;;1.16;56.96
30949;BME280;17637;51.984;21.208;2023-02-12T09:00:21;102208.53;;;1.28;55.68
30949;BME280;17637;51.984;21.208;2023-02-12T09:02:53;102205.00;;;1.60;55.24
30949;BME280;17637;51.984;21.208;2023-02-12T09:05:26;102164.06;;;1.40;55.08
30949;BME280;17637;51.984;21.208;2023-02-12T09:07:58;102199.88;;;1.57;56.30
30949;BME280;17637;51.984;21.208;2023-02-12T09:10:30;102193.84;;;1.68;56.73
30949;BME280;17637;51.984;21.208;2023-02-12T09:13:02;102165.63;;;1.68;56.41
30949;BME280;17637;51.984;21.208;2023-02-12T09:15:38;102214.34;;;1.68;55.53
30949;BME280;17637;51.984;21.208;2023-02-12T09:18:12;102222.91;;;1.63;56.30
30949;BME280;17637;51.984;21.208;2023-02-12T09:20:44;102177.72;;;1.41;55.98
30949;BME280;17637;51.984;21.208;2023-02-12T09:23:16;102205.94;;;1.27;56.29
30949;BME280;17637;51.984;21.208;2023-02-12T09:25:48;102206.88;;;1.12;57.12
30949;BME280;17637;51.984;21.208;2023-02-12T09:28:21;102208.50;;;1.33;56.54
30949;BME280;17637;51.984;21.208;2023-02-12T09:30:53;102230.63;;;1.57;56.69
30949;BME280;17637;51.984;21.208;2023-02-12T09:33:25;102194.88;;;1.20;55.85
30949;BME280;17637;51.984;21.208;2023-02-12T09:36:03;102227.25;;;1.47;56.73
30949;BME280;17637;51.984;21.208;2023-02-12T09:38:36;102234.00;;;1.69;56.07
30949;BME280;17637;51.984;21.208;2023-02-12T09:49:54;102263.03;;;1.72;55.13
30949;BME280;17637;51.984;21.208;2023-02-12T09:52:28;102245.09;;;1.69;56.54
30949;BME280;17637;51.984;21.208;2023-02-12T09:55:01;102263.94;;;1.62;56.01
30949;BME280;17637;51.984;21.208;2023-02-12T09:57:35;102279.19;;;1.88;55.16
30949;BME280;17637;51.984;21.208;2023-02-12T10:00:12;102255.16;;;2.05;55.56
30949;BME280;17637;51.984;21.208;2023-02-12T10:02:49;102238.22;;;1.74;54.31
30949;BME280;17637;51.984;21.208;2023-02-12T10:05:26;102215.13;;;1.82;55.78
30949;BME280;17637;51.984;21.208;2023-02-12T10:28:10;102233.31;;;2.71;53.81
30949;BME280;17637;51.984;21.208;2023-02-12T10:30:56;102194.41;;;2.15;52.17
30949;BME280;17637;51.984;21.208;2023-02-12T10:33:42;102244.41;;;2.76;53.06
30949;BME280;17637;51.984;21.208;2023-02-12T10:38:54;102222.94;;;2.85;54.49
30949;BME280;17637;51.984;21.208;2023-02-12T10:41:29;102232.38;;;2.78;54.15
30949;BME280;17637;51.984;21.208;2023-02-12T10:44:03;102237.50;;;2.78;53.06
30949;BME280;17637;51.984;21.208;2023-02-12T10:46:35;102237.72;;;2.55;53.95
30949;BME280;17637;51.984;21.208;2023-02-12T10:49:10;102245.34;;;2.66;54.24
30949;BME280;17637;51.984;21.208;2023-02-12T10:52:20;102255.72;;;2.49;54.38
30949;BME280;17637;51.984;21.208;2023-02-12T10:54:55;102252.13;;;2.74;55.58
30949;BME280;17637;51.984;21.208;2023-02-12T10:57:29;102209.38;;;2.67;54.74
30949;BME280;17637;51.984;21.208;2023-02-12T11:00:26;102268.13;;;3.03;54.43
30949;BME280;17637;51.984;21.208;2023-02-12T11:05:43;102261.34;;;2.95;55.23
30949;BME280;17637;51.984;21.208;2023-02-12T11:08:35;102259.63;;;2.98;53.17
30949;BME280;17637;51.984;21.208;2023-02-12T11:11:24;102258.97;;;2.74;54.73
30949;BME280;17637;51.984;21.208;2023-02-12T11:14:17;102235.63;;;2.97;54.27
30949;BME280;17637;51.984;21.208;2023-02-12T11:16:55;102233.13;;;2.92;52.61
30949;BME280;17637;51.984;21.208;2023-02-12T11:19:30;102217.59;;;3.03;53.58
30949;BME280;17637;51.984;21.208;2023-02-12T11:22:13;102251.72;;;3.15;53.35
30949;BME280;17637;51.984;21.208;2023-02-12T11:24:59;102246.41;;;3.32;53.60
30949;BME280;17637;51.984;21.208;2023-02-12T11:27:32;102247.25;;;3.34;52.80
30949;BME280;17637;51.984;21.208;2023-02-12T11:30:20;102238.06;;;3.11;54.32
30949;BME280;17637;51.984;21.208;2023-02-12T11:32:52;102220.03;;;3.16;54.39
30949;BME280;17637;51.984;21.208;2023-02-12T11:35:25;102235.97;;;3.45;53.84
30949;BME280;17637;51.984;21.208;2023-02-12T11:37:59;102231.88;;;3.27;52.53
30949;BME280;17637;51.984;21.208;2023-02-12T11:40:33;102215.63;;;3.28;53.99
30949;BME280;17637;51.984;21.208;2023-02-12T11:43:06;102220.78;;;3.25;53.64
30949;BME280;17637;51.984;21.208;2023-02-12T11:45:45;102240.44;;;3.30;53.37
30949;BME280;17637;51.984;21.208;2023-02-12T11:48:31;102242.91;;;3.36;52.83
30949;BME280;17637;51.984;21.208;2023-02-12T11:51:08;102244.50;;;3.49;52.93
30949;BME280;17637;51.984;21.208;2023-02-12T11:53:52;102244.72;;;3.29;51.98
30949;BME280;17637;51.984;21.208;2023-02-12T11:56:40;102235.44;;;3.17;53.57
30949;BME280;17637;51.984;21.208;2023-02-12T11:59:34;102235.31;;;3.26;52.99
30949;BME280;17637;51.984;21.208;2023-02-12T12:04:48;102225.19;;;3.16;52.91
30949;BME280;17637;51.984;21.208;2023-02-12T12:07:29;102225.13;;;3.19;52.86
30949;BME280;17637;51.984;21.208;2023-02-12T12:15:31;102237.69;;;3.45;53.16
30949;BME280;17637;51.984;21.208;2023-02-12T12:18:24;102235.88;;;3.53;51.72
30949;BME280;17637;51.984;21.208;2023-02-12T12:21:33;102228.06;;;3.61;52.26
30949;BME280;17637;51.984;21.208;2023-02-12T12:24:16;102214.84;;;3.22;50.10
30949;BME280;17637;51.984;21.208;2023-02-12T12:33:24;102220.16;;;3.76;50.83
30949;BME280;17637;51.984;21.208;2023-02-12T12:39:10;102207.53;;;3.59;50.64
30949;BME280;17637;51.984;21.208;2023-02-12T12:53:46;102197.09;;;3.69;52.60
30949;BME280;17637;51.984;21.208;2023-02-12T12:56:47;102195.28;;;3.78;53.54
30949;BME280;17637;51.984;21.208;2023-02-12T13:02:14;102192.41;;;4.00;53.12
30949;BME280;17637;51.984;21.208;2023-02-12T13:17:15;102191.63;;;3.95;53.24
30949;BME280;17637;51.984;21.208;2023-02-12T13:20:15;102176.63;;;4.22;53.04
30949;BME280;17637;51.984;21.208;2023-02-12T13:25:48;102171.44;;;4.23;52.70
30949;BME280;17637;51.984;21.208;2023-02-12T13:28:33;102185.69;;;3.90;51.39
30949;BME280;17637;51.984;21.208;2023-02-12T13:31:09;102162.03;;;3.65;51.42
30949;BME280;17637;51.984;21.208;2023-02-12T13:34:10;102179.69;;;3.88;51.76
30949;BME280;17637;51.984;21.208;2023-02-12T13:36:44;102155.34;;;3.51;52.03
30949;BME280;17637;51.984;21.208;2023-02-12T13:44:48;102195.47;;;3.63;52.38
30949;BME280;17637;51.984;21.208;2023-02-12T13:56:04;102160.00;;;3.21;52.18
30949;BME280;17637;51.984;21.208;2023-02-12T13:58:38;102193.22;;;3.37;53.50
30949;BME280;17637;51.984;21.208;2023-02-12T14:01:11;102193.19;;;3.41;53.48
30949;BME280;17637;51.984;21.208;2023-02-12T14:03:45;102188.72;;;3.54;53.96
30949;BME280;17637;51.984;21.208;2023-02-12T14:06:19;102186.59;;;3.19;53.50
30949;BME280;17637;51.984;21.208;2023-02-12T14:09:07;102200.13;;;3.35;53.58
30949;BME280;17637;51.984;21.208;2023-02-12T14:12:08;102194.94;;;3.38;53.79
30949;BME280;17637;51.984;21.208;2023-02-12T14:14:46;102185.78;;;3.17;53.65
30949;BME280;17637;51.984;21.208;2023-02-12T14:25:38;102177.53;;;2.87;53.98
30949;BME280;17637;51.984;21.208;2023-02-12T14:28:25;102178.28;;;2.93;53.64
30949;BME280;17637;51.984;21.208;2023-02-12T14:33:52;102185.09;;;3.01;55.06
30949;BME280;17637;51.984;21.208;2023-02-12T14:36:49;102164.75;;;2.82;54.85
30949;BME280;17637;51.984;21.208;2023-02-12T14:39:39;102125.63;;;2.57;56.14
30949;BME280;17637;51.984;21.208;2023-02-12T14:44:53;102196.38;;;2.87;56.46
30949;BME280;17637;51.984;21.208;2023-02-12T14:50:25;102190.59;;;2.62;55.97
30949;BME280;17637;51.984;21.208;2023-02-12T14:53:06;102197.56;;;2.49;56.38
30949;BME280;17637;51.984;21.208;2023-02-12T14:55:45;102198.47;;;2.45;56.99
30949;BME280;17637;51.984;21.208;2023-02-12T14:58:20;102125.28;;;1.99;58.08
30949;BME280;17637;51.984;21.208;2023-02-12T15:00:56;102182.34;;;2.27;57.60
30949;BME280;17637;51.984;21.208;2023-02-12T15:03:40;102199.38;;;2.36;57.97
30949;BME280;17637;51.984;21.208;2023-02-12T15:06:21;102191.00;;;2.12;57.73
30949;BME280;17637;51.984;21.208;2023-02-12T15:09:02;102198.72;;;2.09;58.46
30949;BME280;17637;51.984;21.208;2023-02-12T15:11:43;102181.66;;;2.04;58.62
30949;BME280;17637;51.984;21.208;2023-02-12T15:14:21;102195.38;;;1.96;59.39
30949;BME280;17637;51.984;21.208;2023-02-12T15:17:05;102202.28;;;1.90;59.08
30949;BME280;17637;51.984;21.208;2023-02-12T15:19:56;102199.75;;;1.79;59.57
30949;BME280;17637;51.984;21.208;2023-02-12T15:22:35;102197.25;;;1.68;59.62
30949;BME280;17637;51.984;21.208;2023-02-12T15:25:15;102209.25;;;1.64;60.15
30949;BME280;17637;51.984;21.208;2023-02-12T15:27:49;102202.41;;;1.59;59.43
30949;BME280;17637;51.984;21.208;2023-02-12T15:30:24;102148.81;;;1.14;60.52
30949;BME280;17637;51.984;21.208;2023-02-12T15:33:00;102170.91;;;1.41;60.22
30949;BME280;17637;51.984;21.208;2023-02-12T15:35:36;102221.22;;;1.61;59.97
30949;BME280;17637;51.984;21.208;2023-02-12T15:38:21;102203.34;;;1.44;60.63
30949;BME280;17637;51.984;21.208;2023-02-12T15:40:59;102169.31;;;1.16;61.16
30949;BME280;17637;51.984;21.208;2023-02-12T15:43:34;102223.00;;;1.39;61.29
30949;BME280;17637;51.984;21.208;2023-02-12T15:46:15;102227.28;;;1.37;61.60
30949;BME280;17637;51.984;21.208;2023-02-12T15:48:48;102227.28;;;1.37;61.55
30949;BME280;17637;51.984;21.208;2023-02-12T15:51:32;102235.84;;;1.31;61.66
30949;BME280;17637;51.984;21.208;2023-02-12T15:54:06;102233.31;;;1.25;61.84
30949;BME280;17637;51.984;21.208;2023-02-12T15:56:39;102232.44;;;1.27;62.21
30949;BME280;17637;51.984;21.208;2023-02-12T15:59:23;102222.22;;;1.09;61.94
30949;BME280;17637;51.984;21.208;2023-02-12T16:02:00;102214.59;;;0.92;62.88